Time;durP1;ratioP1;P1;durP2;ratioP2;P2;SDS_P1;SDS_P2;PMS_P1;PMS_P2;Temp;Humidity;BMP_temperature;BMP_pressure;BME280_temperature;BME280_humidity;BME280_pressure;Samples;Min_cycle;Max_cycle;Signal;HPM_P1;HPM_P2
2022/09/13 00:01:11;;;;;;;9.88;7.82;;;11.90;99.90;;;;;;5072192;28;20645;-88
2022/09/13 00:06:41;;;;;;;8.13;5.65;;;12.00;99.90;;;;;;5067716;28;20277;-87
2022/09/13 00:09:29;;;;;;;5.55;5.00;;;12.00;99.90;;;;;;5070934;28;20570;-87
2022/09/13 00:11:56;;;;;;;9.65;8.25;;;12.00;99.90;;;;;;5071709;28;20228;-87
2022/09/13 00:14:29;;;;;;;8.80;7.13;;;11.90;99.90;;;;;;5077535;28;20197;-87
2022/09/13 00:17:11;;;;;;;5.32;4.78;;;11.80;99.90;;;;;;5058167;28;20198;-87
2022/09/13 00:19:40;;;;;;;10.35;8.25;;;11.80;99.90;;;;;;5076823;28;20205;-87
2022/09/13 00:22:07;;;;;;;8.13;6.75;;;11.70;99.90;;;;;;5073994;28;20211;-87
2022/09/13 00:24:34;;;;;;;9.02;5.32;;;11.70;99.90;;;;;;5079445;28;20594;-87
2022/09/13 00:27:01;;;;;;;7.50;5.45;;;11.70;99.90;;;;;;5073475;28;20194;-87
2022/09/13 00:29:29;;;;;;;4.97;3.88;;;11.70;99.90;;;;;;5077898;28;20197;-87
2022/09/13 00:32:06;;;;;;;5.25;3.40;;;11.70;99.90;;;;;;5068484;28;20247;-87
2022/09/13 00:34:32;;;;;;;3.65;3.33;;;11.70;99.90;;;;;;5077113;28;20208;-87
2022/09/13 00:37:13;;;;;;;6.15;4.63;;;11.70;99.90;;;;;;5075006;28;20205;-87
2022/09/13 00:39:41;;;;;;;4.15;3.75;;;11.70;99.90;;;;;;5078771;28;20247;-87
2022/09/13 00:42:10;;;;;;;8.65;5.50;;;11.70;99.90;;;;;;5069913;28;20202;-87
2022/09/13 00:45:15;;;;;;;3.20;2.90;;;11.70;99.90;;;;;;5078515;28;20205;-87
2022/09/13 00:47:57;;;;;;;3.13;2.85;;;11.60;99.90;;;;;;5076492;28;20296;-87
2022/09/13 00:50:33;;;;;;;4.57;2.80;;;11.60;99.90;;;;;;5074895;28;20201;-87
2022/09/13 00:53:05;;;;;;;3.47;3.17;;;11.50;99.90;;;;;;5075655;28;20612;-87
2022/09/13 00:55:38;;;;;;;4.88;3.10;;;11.50;99.90;;;;;;5077812;28;20209;-88
2022/09/13 00:58:09;;;;;;;3.28;2.97;;;11.50;99.90;;;;;;5076452;28;20591;-87
2022/09/13 01:00:42;;;;;;;3.88;2.90;;;11.50;99.90;;;;;;5073579;28;20296;-87
2022/09/13 01:03:15;;;;;;;5.43;3.70;;;11.50;99.90;;;;;;5073804;28;20284;-87
2022/09/13 01:05:45;;;;;;;10.68;6.20;;;11.60;99.90;;;;;;5079591;28;20236;-87
2022/09/13 01:08:21;;;;;;;3.00;2.80;;;11.60;99.90;;;;;;5072999;28;20210;-87
2022/09/13 01:11:01;;;;;;;5.30;2.80;;;11.60;99.90;;;;;;5074053;28;20193;-87
2022/09/13 01:13:31;;;;;;;3.05;2.70;;;11.50;99.90;;;;;;5074748;28;20236;-87
2022/09/13 01:16:11;;;;;;;4.47;4.05;;;11.50;99.90;;;;;;5074024;28;20205;-87
2022/09/13 01:18:42;;;;;;;5.57;4.03;;;11.40;99.90;;;;;;5071702;28;20201;-87
2022/09/13 01:21:44;;;;;;;4.95;4.43;;;11.50;99.90;;;;;;5073116;28;20559;-87
2022/09/13 01:24:56;;;;;;;4.80;3.75;;;11.50;99.90;;;;;;5065040;28;20258;-88
2022/09/13 01:27:58;;;;;;;6.88;3.13;;;11.40;99.90;;;;;;5060543;28;20204;-87
2022/09/13 01:30:35;;;;;;;5.00;3.22;;;11.40;99.90;;;;;;4993815;28;20698;-86
2022/09/13 01:33:25;;;;;;;3.83;2.65;;;11.30;99.90;;;;;;4995803;28;20219;-87
2022/09/13 01:36:17;;;;;;;5.30;3.75;;;11.20;99.90;;;;;;4986069;28;20233;-87
2022/09/13 01:39:14;;;;;;;5.03;4.20;;;11.20;99.90;;;;;;4990551;28;20196;-87
2022/09/13 01:42:05;;;;;;;4.15;3.75;;;11.30;99.90;;;;;;4991656;28;20210;-87
2022/09/13 01:44:52;;;;;;;4.10;2.60;;;11.30;99.90;;;;;;4986659;28;20199;-87
2022/09/13 01:47:30;;;;;;;3.00;2.70;;;11.20;99.90;;;;;;4983597;28;20272;-87
2022/09/13 01:50:10;;;;;;;3.72;3.13;;;11.20;99.90;;;;;;4987422;28;20193;-87
2022/09/13 01:52:47;;;;;;;7.07;3.83;;;11.30;99.90;;;;;;4991159;28;20228;-87
2022/09/13 01:55:22;;;;;;;3.78;3.38;;;11.30;99.90;;;;;;4982699;28;20211;-87
2022/09/13 01:57:53;;;;;;;6.00;4.55;;;11.40;99.90;;;;;;4992087;28;20214;-88
2022/09/13 02:00:23;;;;;;;2.90;2.70;;;11.30;99.90;;;;;;4990367;28;20205;-87
2022/09/13 02:02:58;;;;;;;2.97;2.67;;;11.20;99.90;;;;;;4982678;28;20210;-87
2022/09/13 02:05:39;;;;;;;3.88;3.25;;;11.20;99.90;;;;;;4993499;28;20219;-87
2022/09/13 02:08:12;;;;;;;3.88;3.58;;;11.20;99.90;;;;;;5071097;28;20205;-87
2022/09/13 02:10:42;;;;;;;2.92;2.30;;;11.20;99.90;;;;;;5069488;28;20194;-87
2022/09/13 02:13:14;;;;;;;4.28;2.80;;;11.10;99.90;;;;;;5078180;28;20216;-87
2022/09/13 02:15:46;;;;;;;3.25;2.60;;;11.00;99.90;;;;;;5078708;28;20279;-87
2022/09/13 02:18:18;;;;;;;3.20;2.92;;;11.00;99.90;;;;;;5066935;28;20198;-87
2022/09/13 02:20:50;;;;;;;3.50;3.20;;;10.90;99.90;;;;;;5076687;28;20197;-87
2022/09/13 02:23:26;;;;;;;5.90;2.55;;;10.90;99.90;;;;;;5067842;28;20680;-87
2022/09/13 02:25:57;;;;;;;2.80;2.60;;;11.00;99.90;;;;;;5070024;28;20247;-87
2022/09/13 02:28:28;;;;;;;4.32;3.80;;;11.00;99.90;;;;;;5063182;28;20212;-86
2022/09/13 02:30:59;;;;;;;3.53;2.25;;;11.00;99.90;;;;;;5075133;28;20209;-88
2022/09/13 02:33:30;;;;;;;3.70;2.70;;;11.10;99.90;;;;;;5076297;28;20225;-87
2022/09/13 02:36:02;;;;;;;3.70;3.25;;;11.00;99.90;;;;;;5070767;28;20194;-87
2022/09/13 02:38:34;;;;;;;3.72;3.42;;;11.00;99.90;;;;;;5067025;28;20201;-88
2022/09/13 02:41:12;;;;;;;3.25;2.95;;;11.00;99.90;;;;;;5068008;28;20512;-87
2022/09/13 02:43:44;;;;;;;3.35;2.90;;;11.00;99.90;;;;;;5076957;28;20208;-87
2022/09/13 02:46:24;;;;;;;3.25;2.78;;;10.90;99.90;;;;;;5054477;28;20264;-86
2022/09/13 02:49:05;;;;;;;3.85;3.38;;;10.90;99.90;;;;;;5078021;28;20205;-88
2022/09/13 02:51:52;;;;;;;3.30;3.00;;;10.90;99.90;;;;;;5070787;28;20200;-88
2022/09/13 02:54:40;;;;;;;4.90;3.10;;;10.90;99.90;;;;;;5065055;28;20209;-88
2022/09/13 02:57:18;;;;;;;3.15;2.85;;;11.00;99.90;;;;;;5074272;28;20281;-87
2022/09/13 02:59:46;;;;;;;3.78;2.53;;;10.90;99.90;;;;;;5071060;28;20257;-87
2022/09/13 03:02:21;;;;;;;3.50;2.70;;;10.90;99.90;;;;;;5066668;28;20708;-87
2022/09/13 03:04:50;;;;;;;2.92;2.28;;;10.90;99.90;;;;;;5069217;28;20221;-87
2022/09/13 03:07:17;;;;;;;3.10;2.80;;;10.90;99.90;;;;;;5071957;28;20210;-87
2022/09/13 03:09:49;;;;;;;2.70;2.50;;;10.90;99.90;;;;;;5079098;28;20194;-88
2022/09/13 03:12:43;;;;;;;3.53;3.15;;;10.90;99.90;;;;;;5065183;28;20217;-88
2022/09/13 03:15:19;;;;;;;3.10;2.60;;;10.90;99.90;;;;;;5067303;28;20198;-88
2022/09/13 03:17:57;;;;;;;3.28;2.90;;;10.90;99.90;;;;;;5078395;28;20213;-87
2022/09/13 03:20:50;;;;;;;2.65;2.45;;;10.90;99.90;;;;;;5071808;28;20782;-88
2022/09/13 03:23:41;;;;;;;2.60;2.40;;;10.80;99.90;;;;;;5068486;28;20198;-87
2022/09/13 03:26:31;;;;;;;3.30;2.70;;;10.80;99.90;;;;;;5077160;28;20197;-87
2022/09/13 03:29:21;;;;;;;3.20;2.90;;;10.80;99.90;;;;;;5073619;28;20199;-87
2022/09/13 03:32:06;;;;;;;3.80;2.80;;;10.80;99.90;;;;;;5072016;28;20194;-87
2022/09/13 03:34:48;;;;;;;2.60;2.40;;;10.80;99.90;;;;;;5071439;28;20193;-88
2022/09/13 03:40:12;;;;;;;3.15;2.83;;;10.80;99.90;;;;;;5070039;28;20193;-87
2022/09/13 03:42:44;;;;;;;3.70;2.58;;;10.80;99.90;;;;;;5075132;28;20200;-87
2022/09/13 03:45:12;;;;;;;2.95;2.65;;;10.80;99.90;;;;;;5074281;28;20217;-88
2022/09/13 03:47:43;;;;;;;5.18;2.53;;;10.70;99.90;;;;;;5070197;28;20390;-87
2022/09/13 03:50:15;;;;;;;4.07;2.50;;;10.70;99.90;;;;;;5076650;28;20221;-89
2022/09/13 03:52:45;;;;;;;6.63;3.35;;;10.70;99.90;;;;;;5068458;28;20221;-87
2022/09/13 03:55:18;;;;;;;3.17;2.40;;;10.70;99.90;;;;;;5070379;28;20205;-88
2022/09/13 03:57:47;;;;;;;2.80;2.60;;;10.60;99.90;;;;;;5074237;28;20197;-88
2022/09/13 04:00:17;;;;;;;4.93;2.78;;;10.60;99.90;;;;;;5075142;28;20208;-88
2022/09/13 04:02:44;;;;;;;4.38;2.40;;;10.70;99.90;;;;;;5063466;28;20198;-87
2022/09/13 04:05:11;;;;;;;5.95;2.67;;;10.60;99.90;;;;;;5061109;28;20251;-88
2022/09/13 04:07:37;;;;;;;3.15;2.85;;;10.60;99.90;;;;;;5059241;28;20204;-88
2022/09/13 04:10:07;;;;;;;4.20;2.50;;;10.60;99.90;;;;;;5066191;28;20285;-89
2022/09/13 04:12:34;;;;;;;2.78;2.47;;;10.60;99.90;;;;;;5074464;28;20224;-88
2022/09/13 04:15:01;;;;;;;3.90;2.70;;;10.60;99.90;;;;;;5076838;28;20197;-88
2022/09/13 04:17:36;;;;;;;2.78;2.55;;;10.70;99.90;;;;;;5064414;28;20660;-88
2022/09/13 04:20:06;;;;;;;2.80;2.60;;;10.70;99.90;;;;;;5077027;28;20254;-88
2022/09/13 04:23:05;;;;;;;3.95;2.42;;;10.70;99.90;;;;;;5068275;28;20202;-87
2022/09/13 04:25:43;;;;;;;3.47;2.67;;;10.80;99.90;;;;;;5069931;28;20232;-87
2022/09/13 04:28:10;;;;;;;5.40;2.40;;;10.80;99.90;;;;;;5070601;28;20208;-87
2022/09/13 04:30:54;;;;;;;3.45;2.50;;;10.70;99.90;;;;;;5076201;28;20204;-87
2022/09/13 04:33:24;;;;;;;2.63;2.40;;;10.80;99.90;;;;;;5073997;28;20209;-88
2022/09/13 04:39:13;;;;;;;4.63;2.42;;;10.60;99.90;;;;;;5068872;28;20260;-87
2022/09/13 04:42:02;;;;;;;2.78;2.30;;;10.50;99.90;;;;;;5073032;28;20583;-88
2022/09/13 04:45:17;;;;;;;3.20;2.13;;;10.50;99.90;;;;;;5059586;28;20198;-88
2022/09/13 04:47:55;;;;;;;2.80;2.40;;;10.50;99.90;;;;;;5068570;28;20205;-86
2022/09/13 04:50:25;;;;;;;2.78;2.58;;;10.40;99.90;;;;;;5067616;28;20202;-88
2022/09/13 04:52:55;;;;;;;3.08;2.30;;;10.40;99.90;;;;;;5069750;28;20247;-88
2022/09/13 04:55:47;;;;;;;3.00;2.67;;;10.50;99.90;;;;;;5073192;28;20193;-88
2022/09/13 05:01:30;;;;;;;2.60;2.40;;;10.50;99.90;;;;;;5073636;28;20268;-86
2022/09/13 05:03:59;;;;;;;3.03;2.50;;;10.50;99.90;;;;;;5072642;28;20212;-86
2022/09/13 05:06:36;;;;;;;2.65;2.45;;;10.50;99.90;;;;;;5069817;28;20222;-86
2022/09/13 05:09:53;;;;;;;3.17;2.88;;;10.40;99.90;;;;;;5067336;28;20284;-86
2022/09/13 05:12:24;;;;;;;2.97;2.50;;;10.50;99.90;;;;;;5071863;28;20663;-87
2022/09/13 05:15:01;;;;;;;3.50;2.20;;;10.60;99.90;;;;;;5067404;28;20196;-88
2022/09/13 05:17:30;;;;;;;2.45;2.25;;;10.60;99.90;;;;;;5071737;28;20204;-85
2022/09/13 05:20:23;;;;;;;3.75;2.53;;;10.80;99.90;;;;;;5070821;28;20201;-87
2022/09/13 05:22:55;;;;;;;3.83;2.20;;;10.90;99.90;;;;;;5073388;28;20193;-87
2022/09/13 05:25:24;;;;;;;3.05;2.13;;;10.90;99.90;;;;;;5065283;28;20705;-87
2022/09/13 05:27:54;;;;;;;7.35;2.42;;;10.90;99.90;;;;;;5072760;28;20193;-87
2022/09/13 05:30:22;;;;;;;3.80;2.50;;;11.20;99.90;;;;;;5071370;28;20203;-87
2022/09/13 05:33:00;;;;;;;4.60;2.05;;;11.40;99.90;;;;;;5071414;28;20651;-87
2022/09/13 05:35:30;;;;;;;4.18;2.40;;;11.30;99.90;;;;;;5058467;28;20716;-86
2022/09/13 05:38:00;;;;;;;2.90;2.20;;;11.30;99.90;;;;;;5064211;28;20200;-86
2022/09/13 05:40:26;;;;;;;2.83;2.13;;;11.30;99.90;;;;;;5063000;28;20201;-86
2022/09/13 05:42:54;;;;;;;2.25;2.05;;;11.40;99.90;;;;;;5069405;28;20648;-87
2022/09/13 05:45:22;;;;;;;2.78;2.38;;;11.50;99.90;;;;;;5069313;28;20656;-86
2022/09/13 05:47:50;;;;;;;3.05;1.92;;;11.60;99.90;;;;;;5065479;28;20202;-87
2022/09/13 05:50:47;;;;;;;3.45;2.25;;;11.70;99.90;;;;;;5067405;28;20194;-86
2022/09/13 05:53:36;;;;;;;3.15;2.00;;;11.70;99.90;;;;;;5076561;28;20232;-86
2022/09/13 05:56:30;;;;;;;4.32;2.20;;;11.70;99.90;;;;;;5077174;28;20197;-86
2022/09/13 05:59:00;;;;;;;2.10;1.98;;;11.80;99.90;;;;;;5067806;28;20569;-86
2022/09/13 06:01:55;;;;;;;3.67;2.08;;;11.80;99.90;;;;;;5079759;28;20204;-87
2022/09/13 06:04:24;;;;;;;3.72;1.98;;;11.80;99.90;;;;;;5073217;28;20635;-85
2022/09/13 06:06:54;;;;;;;4.63;2.15;;;11.90;99.90;;;;;;5074860;28;20198;-85
2022/09/13 06:09:24;;;;;;;4.15;2.33;;;12.10;99.90;;;;;;5066415;28;20543;-85
2022/09/13 06:12:17;;;;;;;3.97;2.40;;;12.20;99.90;;;;;;5066946;28;20635;-85
2022/09/13 06:15:06;;;;;;;3.50;2.05;;;12.40;99.90;;;;;;5069607;28;20210;-85
2022/09/13 06:17:34;;;;;;;3.05;2.03;;;12.60;99.90;;;;;;5072022;28;20197;-85
2022/09/13 06:20:02;;;;;;;3.47;2.03;;;12.70;99.70;;;;;;5071137;28;20193;-85
2022/09/13 06:22:36;;;;;;;3.53;2.08;;;12.70;99.80;;;;;;5075611;28;20189;-85
2022/09/13 06:25:06;;;;;;;3.17;2.13;;;12.70;99.70;;;;;;5075074;28;20213;-84
2022/09/13 06:27:33;;;;;;;3.70;2.10;;;12.80;99.80;;;;;;5076151;28;20208;-85
2022/09/13 06:30:00;;;;;;;2.53;2.20;;;12.90;99.90;;;;;;5072448;28;20288;-85
2022/09/13 06:32:27;;;;;;;3.38;2.00;;;13.00;99.70;;;;;;5065463;28;20200;-87
2022/09/13 06:34:55;;;;;;;3.03;1.98;;;13.10;99.50;;;;;;5071159;28;20224;-87
2022/09/13 06:37:22;;;;;;;5.00;2.10;;;13.30;99.10;;;;;;5071465;28;20229;-87
2022/09/13 06:39:49;;;;;;;3.30;1.80;;;13.50;99.20;;;;;;5058649;28;20202;-87
2022/09/13 06:42:16;;;;;;;2.88;1.90;;;13.80;98.90;;;;;;5064950;28;20232;-87
2022/09/13 06:44:44;;;;;;;3.80;1.70;;;14.00;97.70;;;;;;5061839;28;20198;-87
2022/09/13 06:47:12;;;;;;;4.75;1.70;;;14.10;96.70;;;;;;5064140;28;20194;-87
2022/09/13 06:49:42;;;;;;;3.42;1.83;;;14.10;96.70;;;;;;5070466;28;20206;-87
2022/09/13 06:52:10;;;;;;;2.95;2.13;;;14.10;96.70;;;;;;5073256;28;20209;-86
2022/09/13 06:54:38;;;;;;;6.38;1.60;;;14.20;96.70;;;;;;5074467;28;20223;-85
2022/09/13 06:57:05;;;;;;;3.28;1.95;;;14.20;96.70;;;;;;5068221;28;20201;-86
2022/09/13 06:59:33;;;;;;;4.13;1.52;;;14.30;96.70;;;;;;5070598;28;20221;-86
2022/09/13 07:02:00;;;;;;;3.97;1.80;;;14.40;95.70;;;;;;5070414;28;20205;-85
2022/09/13 07:04:36;;;;;;;2.85;1.70;;;14.50;95.70;;;;;;5072691;28;20248;-84
2022/09/13 07:07:03;;;;;;;2.03;1.50;;;14.70;95.50;;;;;;5069265;28;20204;-85
2022/09/13 07:09:33;;;;;;;1.98;1.65;;;14.80;94.70;;;;;;5068703;28;20203;-87
2022/09/13 07:12:00;;;;;;;3.42;1.63;;;14.90;94.00;;;;;;5064568;28;20634;-86
2022/09/13 07:14:29;;;;;;;3.83;1.90;;;14.90;93.90;;;;;;5071740;28;20221;-87
2022/09/13 07:17:00;;;;;;;1.95;1.60;;;15.10;93.80;;;;;;5073996;28;20201;-88
2022/09/13 07:19:28;;;;;;;1.65;1.55;;;15.20;92.40;;;;;;5070879;28;20232;-88
2022/09/13 07:21:56;;;;;;;1.23;1.13;;;15.40;92.50;;;;;;5069712;28;20219;-89
2022/09/13 07:24:24;;;;;;;2.92;1.40;;;15.50;91.80;;;;;;5069578;28;20201;-87
2022/09/13 07:26:52;;;;;;;3.85;1.90;;;15.60;91.60;;;;;;5063854;28;20210;-87
2022/09/13 07:29:22;;;;;;;1.48;1.38;;;15.80;91.30;;;;;;5067201;28;20208;-87
2022/09/13 07:31:55;;;;;;;1.80;1.45;;;16.00;91.10;;;;;;5068716;28;20237;-87
2022/09/13 07:34:24;;;;;;;1.75;1.50;;;16.10;90.40;;;;;;5066321;28;20213;-87
2022/09/13 07:36:51;;;;;;;4.20;2.00;;;16.20;90.30;;;;;;5063873;28;20267;-87
2022/09/13 07:39:24;;;;;;;2.08;1.83;;;16.40;89.80;;;;;;5063139;28;20198;-88
2022/09/13 07:41:55;;;;;;;4.85;2.55;;;16.70;86.60;;;;;;5061805;28;20284;-86
2022/09/13 07:44:22;;;;;;;2.58;2.30;;;16.80;85.80;;;;;;5060685;28;20392;-87
2022/09/13 07:46:49;;;;;;;2.13;1.88;;;17.00;85.00;;;;;;5067613;28;20254;-87
2022/09/13 07:49:18;;;;;;;5.30;1.50;;;17.20;82.40;;;;;;5060173;28;20547;-85
2022/09/13 07:51:45;;;;;;;3.03;1.85;;;17.30;81.70;;;;;;5069554;28;20204;-86
2022/09/13 07:54:13;;;;;;;1.70;1.60;;;17.40;82.60;;;;;;5061945;28;20217;-86
2022/09/13 07:56:42;;;;;;;2.88;1.63;;;17.50;79.80;;;;;;5064428;28;20564;-86
2022/09/13 07:59:14;;;;;;;1.40;1.30;;;17.70;79.20;;;;;;5063633;28;20197;-86
2022/09/13 08:01:43;;;;;;;2.25;1.40;;;17.70;77.40;;;;;;5063930;28;20576;-87
2022/09/13 08:04:12;;;;;;;4.63;1.67;;;17.80;77.10;;;;;;5069437;28;20220;-87
2022/09/13 08:06:42;;;;;;;2.38;1.60;;;17.90;75.80;;;;;;5069211;28;20274;-87
2022/09/13 08:09:09;;;;;;;1.60;1.50;;;18.10;76.70;;;;;;5063554;28;20651;-86
2022/09/13 08:11:38;;;;;;;4.57;1.50;;;18.20;76.60;;;;;;5058329;28;20198;-87
2022/09/13 08:14:06;;;;;;;1.10;1.00;;;18.30;75.40;;;;;;5060250;28;20213;-87
2022/09/13 08:16:35;;;;;;;1.60;1.30;;;18.50;67.00;;;;;;5063692;28;20198;-86
2022/09/13 08:19:04;;;;;;;1.55;1.33;;;18.80;71.60;;;;;;5061651;28;20572;-87
2022/09/13 08:21:37;;;;;;;1.50;1.38;;;19.10;63.60;;;;;;5068225;28;20325;-87
2022/09/13 08:24:15;;;;;;;3.65;1.20;;;19.40;49.90;;;;;;5060418;28;20231;-88
2022/09/13 08:26:42;;;;;;;2.97;1.30;;;19.70;48.00;;;;;;5061965;28;20216;-88
2022/09/13 08:29:11;;;;;;;1.33;1.23;;;20.00;47.30;;;;;;5069356;28;20211;-88
2022/09/13 08:31:39;;;;;;;1.38;1.27;;;20.20;43.10;;;;;;5062778;28;20190;-89
2022/09/13 08:34:10;;;;;;;1.45;1.35;;;20.40;43.70;;;;;;5061903;28;20229;-89
2022/09/13 08:36:37;;;;;;;2.13;1.35;;;20.60;44.60;;;;;;5067484;28;20196;-89
2022/09/13 08:39:04;;;;;;;2.63;1.40;;;20.70;42.30;;;;;;5061053;28;20607;-88
2022/09/13 08:42:07;;;;;;;1.73;1.40;;;20.80;42.10;;;;;;5067602;28;20208;-84
2022/09/13 08:44:36;;;;;;;1.50;1.30;;;21.00;41.70;;;;;;5010122;28;20249;-85
2022/09/13 08:47:21;;;;;;;3.42;1.30;;;21.00;43.00;;;;;;5010816;28;20208;-85
2022/09/13 08:49:52;;;;;;;1.20;1.10;;;21.10;43.80;;;;;;5015278;28;20207;-84
2022/09/13 08:52:30;;;;;;;2.53;1.45;;;21.30;42.40;;;;;;5012814;28;20216;-84
2022/09/13 08:55:08;;;;;;;6.47;1.30;;;21.50;35.20;;;;;;5007507;28;20246;-83
2022/09/13 08:57:44;;;;;;;1.83;1.38;;;22.10;33.50;;;;;;5009013;28;20264;-83
2022/09/13 09:00:18;;;;;;;1.23;1.13;;;22.90;32.20;;;;;;5010590;28;20628;-85
2022/09/13 09:02:58;;;;;;;2.15;1.50;;;24.10;28.90;;;;;;5007345;28;20198;-85
2022/09/13 09:05:27;;;;;;;1.60;1.50;;;25.60;24.30;;;;;;5010829;28;20226;-84
2022/09/13 09:07:59;;;;;;;2.83;1.45;;;26.80;19.60;;;;;;5006276;28;20207;-86
2022/09/13 09:10:31;;;;;;;1.58;1.40;;;28.00;17.50;;;;;;5019355;28;20233;-85
2022/09/13 09:13:02;;;;;;;1.88;1.75;;;28.90;16.10;;;;;;5002939;28;20221;-85
2022/09/13 09:15:34;;;;;;;1.90;1.80;;;29.50;16.40;;;;;;5007559;28;20576;-87
2022/09/13 09:18:07;;;;;;;3.65;1.90;;;29.80;15.40;;;;;;5020517;28;20197;-85
2022/09/13 09:20:40;;;;;;;1.90;1.55;;;29.80;13.30;;;;;;5067391;28;20192;-86
2022/09/13 09:23:14;;;;;;;1.90;1.80;;;29.70;14.60;;;;;;5063966;28;20656;-87
2022/09/13 09:25:40;;;;;;;2.40;1.70;;;29.70;14.00;;;;;;5071031;28;20211;-86
2022/09/13 09:28:13;;;;;;;3.80;1.80;;;30.20;12.40;;;;;;5066625;28;20200;-86
2022/09/13 09:30:48;;;;;;;3.80;1.90;;;31.20;11.70;;;;;;5066633;28;20361;-86
2022/09/13 09:33:38;;;;;;;2.22;2.03;;;32.00;9.90;;;;;;5064208;28;20196;-84
2022/09/13 09:36:11;;;;;;;2.30;2.10;;;32.60;9.20;;;;;;5066192;28;20197;-84
2022/09/13 09:38:41;;;;;;;2.20;1.95;;;31.90;9.20;;;;;;5069274;28;20193;-84
2022/09/13 09:41:16;;;;;;;2.30;2.10;;;31.70;10.30;;;;;;5064224;28;20206;-86
2022/09/13 09:43:53;;;;;;;2.28;2.08;;;32.20;9.20;;;;;;5068468;28;20195;-85
2022/09/13 09:46:25;;;;;;;3.05;2.17;;;31.40;9.10;;;;;;5060755;28;20201;-85
2022/09/13 09:48:56;;;;;;;2.60;2.40;;;31.20;11.00;;;;;;5062503;28;20193;-83
2022/09/13 09:51:27;;;;;;;2.63;2.10;;;31.30;11.30;;;;;;5068169;28;20200;-87
2022/09/13 09:54:00;;;;;;;2.47;2.28;;;30.80;10.70;;;;;;5069483;28;20200;-84
2022/09/13 09:56:31;;;;;;;3.45;2.40;;;31.70;10.20;;;;;;5065521;28;20204;-87
2022/09/13 09:58:58;;;;;;;2.72;2.10;;;31.30;10.50;;;;;;5052380;28;20201;-85
2022/09/13 10:01:27;;;;;;;2.50;2.30;;;31.40;10.70;;;;;;5066188;28;20202;-86
2022/09/13 10:04:08;;;;;;;2.42;2.30;;;31.80;9.40;;;;;;5060274;28;20245;-84
2022/09/13 10:06:36;;;;;;;2.40;2.15;;;32.40;9.10;;;;;;5064374;28;20592;-86
2022/09/13 10:09:05;;;;;;;2.55;2.30;;;31.70;8.90;;;;;;5067933;28;20212;-85
2022/09/13 10:11:45;;;;;;;2.35;2.15;;;31.10;9.70;;;;;;5067868;28;20232;-85
2022/09/13 10:14:36;;;;;;;3.03;2.38;;;30.80;10.70;;;;;;5068196;28;20231;-84
2022/09/13 10:17:06;;;;;;;2.60;2.40;;;30.30;11.60;;;;;;5064656;28;20613;-84
2022/09/13 10:19:35;;;;;;;1.88;1.77;;;29.90;12.90;;;;;;5076948;28;20212;-84
2022/09/13 10:22:04;;;;;;;2.80;2.20;;;31.00;10.10;;;;;;5068051;28;20660;-85
2022/09/13 10:24:32;;;;;;;2.22;2.03;;;30.60;11.60;;;;;;5069071;28;20212;-84
2022/09/13 10:26:59;;;;;;;2.72;2.28;;;30.50;12.00;;;;;;5062993;28;20209;-84
2022/09/13 10:29:27;;;;;;;3.17;2.40;;;30.30;13.10;;;;;;5073510;28;20205;-86
2022/09/13 10:31:56;;;;;;;2.92;2.72;;;29.90;13.60;;;;;;5064090;28;20678;-85
2022/09/13 10:34:27;;;;;;;2.10;1.95;;;30.50;10.90;;;;;;5072884;28;20710;-84
2022/09/13 10:36:59;;;;;;;2.80;2.60;;;31.20;9.80;;;;;;5065582;28;20197;-85
2022/09/13 10:39:28;;;;;;;2.97;1.98;;;31.40;10.50;;;;;;5071272;28;20246;-86
2022/09/13 10:41:57;;;;;;;5.65;2.47;;;31.00;11.30;;;;;;5065372;28;20215;-84
2022/09/13 10:44:29;;;;;;;2.38;2.10;;;31.20;9.90;;;;;;5067383;28;20213;-85
2022/09/13 10:47:04;;;;;;;3.00;2.30;;;31.00;10.70;;;;;;5069658;28;20202;-84
2022/09/13 10:49:39;;;;;;;2.00;1.90;;;30.10;12.20;;;;;;5073612;28;20212;-85
2022/09/13 10:52:33;;;;;;;2.13;2.00;;;29.70;14.50;;;;;;5064181;28;20242;-86
2022/09/13 10:55:28;;;;;;;2.42;1.80;;;29.60;13.10;;;;;;5070503;28;20217;-85
2022/09/13 10:58:13;;;;;;;1.77;1.67;;;29.80;13.90;;;;;;5013473;28;20209;-85
2022/09/13 11:00:47;;;;;;;4.18;2.00;;;29.40;15.90;;;;;;5009472;28;20294;-85
2022/09/13 11:03:26;;;;;;;1.85;1.75;;;29.60;12.90;;;;;;5002812;28;20191;-86
2022/09/13 11:06:00;;;;;;;2.55;1.73;;;29.20;14.80;;;;;;5008620;28;20225;-84
2022/09/13 11:08:44;;;;;;;2.90;1.70;;;28.40;14.40;;;;;;5004333;28;20213;-86
2022/09/13 11:11:22;;;;;;;5.00;1.73;;;28.20;15.80;;;;;;5011456;28;20195;-85
2022/09/13 11:14:04;;;;;;;3.55;1.35;;;27.90;15.60;;;;;;5006468;28;20257;-83
2022/09/13 11:16:45;;;;;;;2.05;1.48;;;27.70;17.70;;;;;;5008934;28;20206;-83
2022/09/13 11:19:36;;;;;;;1.35;1.25;;;27.70;15.50;;;;;;5012415;28;20712;-86
2022/09/13 11:22:22;;;;;;;3.58;1.20;;;27.70;14.70;;;;;;4952782;28;20201;-85
2022/09/13 11:25:06;;;;;;;2.22;1.35;;;27.90;15.60;;;;;;4952284;28;20215;-84
2022/09/13 11:27:44;;;;;;;2.95;1.40;;;27.70;15.50;;;;;;4953802;28;20291;-84
2022/09/13 11:30:17;;;;;;;1.83;1.25;;;27.50;15.40;;;;;;4953021;28;20259;-85
2022/09/13 11:33:04;;;;;;;1.75;1.65;;;27.60;15.40;;;;;;4949523;28;20687;-85
2022/09/13 11:36:02;;;;;;;3.70;1.50;;;27.50;15.40;;;;;;4980237;28;20277;-84
2022/09/13 11:38:49;;;;;;;1.75;1.60;;;27.60;15.40;;;;;;4953341;29;20205;-84
2022/09/13 11:41:32;;;;;;;1.88;1.40;;;27.70;15.50;;;;;;4947831;28;20197;-84
2022/09/13 11:44:23;;;;;;;1.90;1.38;;;27.80;15.00;;;;;;4950965;28;20209;-83
2022/09/13 11:47:04;;;;;;;2.75;1.33;;;28.00;14.70;;;;;;4955337;29;20197;-84
2022/09/13 11:49:48;;;;;;;1.10;1.00;;;27.80;15.60;;;;;;4957935;28;20200;-84
2022/09/13 11:52:26;;;;;;;2.78;1.20;;;27.70;15.50;;;;;;4942588;29;20198;-82
2022/09/13 11:55:07;;;;;;;1.27;1.17;;;27.60;15.50;;;;;;4951880;29;20235;-85
2022/09/13 11:57:40;;;;;;;1.60;1.50;;;27.50;15.40;;;;;;4958249;29;20205;-86
2022/09/13 12:00:16;;;;;;;3.47;1.55;;;27.40;15.30;;;;;;4996927;28;20199;-83
2022/09/13 12:02:47;;;;;;;3.28;1.33;;;27.20;16.10;;;;;;5006639;28;20202;-84
2022/09/13 12:05:19;;;;;;;4.88;1.50;;;27.20;15.20;;;;;;5006579;28;20804;-85
2022/09/13 12:07:50;;;;;;;2.17;1.35;;;27.10;15.20;;;;;;5014381;28;20343;-84
2022/09/13 12:10:22;;;;;;;1.80;1.45;;;27.10;15.20;;;;;;5008287;28;20207;-84
2022/09/13 12:12:52;;;;;;;2.83;1.20;;;27.10;15.30;;;;;;5004988;28;20210;-86
2022/09/13 12:15:24;;;;;;;5.82;1.40;;;27.20;15.30;;;;;;5031749;28;20220;-87
2022/09/13 12:17:56;;;;;;;1.42;1.33;;;27.20;15.30;;;;;;5065753;28;20192;-87
2022/09/13 12:20:32;;;;;;;1.77;1.67;;;27.40;15.40;;;;;;5060822;28;20678;-88
2022/09/13 12:23:02;;;;;;;3.45;1.50;;;27.40;15.30;;;;;;5068996;28;20208;-88
2022/09/13 12:25:38;;;;;;;2.25;1.50;;;27.30;15.30;;;;;;5070531;28;20209;-85
2022/09/13 12:28:13;;;;;;;3.33;1.80;;;27.30;15.30;;;;;;5067022;28;20198;-87
2022/09/13 12:30:45;;;;;;;3.67;1.80;;;27.40;15.40;;;;;;5067154;28;20212;-87
2022/09/13 12:33:14;;;;;;;1.85;1.40;;;27.30;15.30;;;;;;5062276;28;20571;-87
2022/09/13 12:35:52;;;;;;;3.53;1.15;;;27.10;15.20;;;;;;5064555;28;20231;-87
2022/09/13 12:38:41;;;;;;;1.30;1.20;;;26.80;15.10;;;;;;5067955;28;20205;-88
2022/09/13 12:41:27;;;;;;;3.15;1.63;;;26.60;15.60;;;;;;4986450;28;20222;-85
2022/09/13 12:44:32;;;;;;;2.20;1.30;;;26.60;14.90;;;;;;4988241;28;20209;-85
2022/09/13 12:47:20;;;;;;;1.55;1.45;;;26.50;14.90;;;;;;4993800;28;20291;-85
2022/09/13 12:50:15;;;;;;;2.78;1.30;;;26.50;14.90;;;;;;4987320;28;20286;-84
2022/09/13 12:52:51;;;;;;;5.63;1.40;;;26.40;14.80;;;;;;4988657;28;20199;-84
2022/09/13 12:55:48;;;;;;;3.58;1.40;;;26.20;14.80;;;;;;4980593;28;20234;-84
2022/09/13 12:58:45;;;;;;;3.30;1.63;;;26.10;14.70;;;;;;4986521;28;20339;-82
2022/09/13 13:01:17;;;;;;;1.77;1.38;;;26.10;14.80;;;;;;4928270;29;20910;-84
2022/09/13 13:03:50;;;;;;;3.08;1.50;;;26.00;14.70;;;;;;4928312;29;20198;-83
2022/09/13 13:06:28;;;;;;;3.97;1.75;;;25.90;14.70;;;;;;4926166;29;20228;-85
2022/09/13 13:08:57;;;;;;;1.80;1.65;;;25.90;14.60;;;;;;4924284;29;20314;-83
2022/09/13 13:11:46;;;;;;;2.80;2.10;;;25.90;14.70;;;;;;4923948;29;20212;-86
2022/09/13 13:14:30;;;;;;;2.22;1.50;;;25.90;15.10;;;;;;4932880;29;20233;-84
2022/09/13 13:17:31;;;;;;;2.38;1.60;;;25.90;15.10;;;;;;4929437;29;20261;-86
2022/09/13 13:19:59;;;;;;;3.20;1.50;;;26.00;14.70;;;;;;5000036;28;20774;-85
2022/09/13 13:23:03;;;;;;;2.03;1.65;;;26.00;14.70;;;;;;5001947;28;20191;-84
2022/09/13 13:25:37;;;;;;;2.72;1.40;;;26.10;14.70;;;;;;5015019;28;20198;-84
2022/09/13 13:28:43;;;;;;;1.73;1.30;;;26.10;14.70;;;;;;5024941;28;20289;-86
2022/09/13 13:31:32;;;;;;;3.53;1.30;;;26.00;14.60;;;;;;4998219;28;20200;-84
2022/09/13 13:34:39;;;;;;;4.35;1.30;;;25.90;14.60;;;;;;5010985;28;20306;-83
2022/09/13 13:37:36;;;;;;;6.88;5.53;;;25.90;14.60;;;;;;5026894;28;20231;-86
2022/09/13 13:40:27;;;;;;;4.45;2.00;;;25.90;14.60;;;;;;5077531;28;20262;-83
2022/09/13 13:43:31;;;;;;;2.78;1.40;;;25.90;16.20;;;;;;5072907;28;20205;-85
2022/09/13 13:46:14;;;;;;;1.25;1.15;;;25.60;14.60;;;;;;5059996;28;20213;-83